Time;durP1;ratioP1;P1;durP2;ratioP2;P2;SDS_P1;SDS_P2;PMS_P1;PMS_P2;Temp;Humidity;BMP_temperature;BMP_pressure;BME280_temperature;BME280_humidity;BME280_pressure;Samples;Min_cycle;Max_cycle;Signal;HPM_P1;HPM_P2
2021/08/08 00:00:25;;;;;;;5.53;1.63;;;15.90;99.90;;;;;;4969881;28;20385;-61
2021/08/08 00:02:51;;;;;;;5.13;1.40;;;16.00;99.90;;;;;;4970943;28;20895;-61
2021/08/08 00:05:16;;;;;;;4.17;1.60;;;16.00;99.90;;;;;;4970389;28;20420;-59
2021/08/08 00:07:42;;;;;;;6.40;1.70;;;16.10;99.90;;;;;;4952957;28;20455;-61
2021/08/08 00:10:10;;;;;;;6.50;1.60;;;16.10;99.90;;;;;;4953656;28;20392;-61
2021/08/08 00:12:37;;;;;;;7.57;1.50;;;16.10;99.90;;;;;;4969950;28;20883;-62
2021/08/08 00:15:04;;;;;;;6.18;1.45;;;16.10;99.90;;;;;;4970550;28;20407;-60
2021/08/08 00:17:32;;;;;;;6.50;1.40;;;16.00;99.90;;;;;;4969977;28;20418;-60
2021/08/08 00:19:59;;;;;;;7.03;1.60;;;15.90;99.90;;;;;;4970561;28;20393;-60
2021/08/08 00:22:24;;;;;;;4.90;1.30;;;15.90;99.90;;;;;;4969974;28;20388;-60
2021/08/08 00:24:50;;;;;;;5.50;1.10;;;15.80;99.90;;;;;;4970745;28;20395;-60
2021/08/08 00:27:16;;;;;;;4.40;1.00;;;15.80;99.90;;;;;;4970168;28;20745;-59
2021/08/08 00:29:42;;;;;;;6.90;1.10;;;15.90;99.90;;;;;;4969930;28;20416;-60
2021/08/08 00:32:08;;;;;;;5.10;1.17;;;15.80;99.90;;;;;;4970469;28;20740;-60
2021/08/08 00:34:33;;;;;;;3.67;0.90;;;15.90;99.90;;;;;;4969513;28;20412;-60
2021/08/08 00:36:59;;;;;;;4.60;0.90;;;15.90;99.90;;;;;;4970513;28;20396;-60
2021/08/08 00:39:25;;;;;;;4.97;0.90;;;16.00;99.90;;;;;;4969739;28;20385;-60
2021/08/08 00:41:51;;;;;;;4.43;0.90;;;15.90;99.90;;;;;;4970432;28;20413;-60
2021/08/08 00:44:17;;;;;;;3.53;1.00;;;15.90;99.90;;;;;;4970794;28;20392;-59
2021/08/08 00:46:43;;;;;;;4.40;1.13;;;15.90;99.90;;;;;;4973022;28;20419;-60
2021/08/08 00:49:09;;;;;;;5.50;1.10;;;15.90;99.90;;;;;;4973715;28;20795;-60
2021/08/08 00:51:37;;;;;;;4.47;1.25;;;15.80;99.90;;;;;;4973125;28;20415;-61
2021/08/08 00:54:03;;;;;;;5.03;1.10;;;15.90;99.90;;;;;;4973818;28;20408;-60
2021/08/08 00:56:29;;;;;;;3.50;0.95;;;15.80;99.90;;;;;;4972999;28;20411;-60
2021/08/08 00:58:55;;;;;;;5.05;1.30;;;15.90;99.90;;;;;;4973764;28;20781;-60
2021/08/08 01:01:25;;;;;;;3.97;1.10;;;15.90;99.90;;;;;;4973137;28;20471;-59
2021/08/08 01:03:52;;;;;;;5.13;1.10;;;15.90;99.90;;;;;;4973406;28;20388;-61
2021/08/08 01:06:33;;;;;;;5.70;1.40;;;15.80;99.90;;;;;;4973471;28;20392;-59
2021/08/08 01:09:03;;;;;;;5.10;1.40;;;15.90;99.90;;;;;;4973375;28;20793;-60
2021/08/08 01:11:29;;;;;;;4.32;1.20;;;15.80;99.90;;;;;;4972770;28;20403;-60
2021/08/08 01:13:56;;;;;;;4.72;1.00;;;15.80;99.90;;;;;;4973022;28;20415;-61
2021/08/08 01:16:24;;;;;;;4.28;1.27;;;15.80;99.90;;;;;;4972670;28;20399;-59
2021/08/08 01:18:51;;;;;;;4.47;1.30;;;15.80;99.90;;;;;;4973767;28;20415;-60
2021/08/08 01:21:21;;;;;;;3.90;1.40;;;15.80;99.90;;;;;;4973548;28;20384;-61
2021/08/08 01:23:57;;;;;;;6.50;1.40;;;15.80;99.90;;;;;;4973271;28;20397;-60
2021/08/08 01:26:24;;;;;;;9.00;1.42;;;15.70;99.90;;;;;;4972715;28;20383;-59
2021/08/08 01:28:53;;;;;;;6.47;1.60;;;15.80;99.90;;;;;;4973259;28;20490;-61
2021/08/08 01:31:18;;;;;;;7.60;1.40;;;15.80;99.90;;;;;;4973385;28;20471;-60
2021/08/08 01:33:44;;;;;;;6.60;1.50;;;15.80;99.90;;;;;;4972145;28;20494;-60
2021/08/08 01:36:10;;;;;;;9.30;1.70;;;15.70;99.90;;;;;;4973325;28;20392;-60
2021/08/08 01:38:42;;;;;;;11.75;2.22;;;15.70;99.90;;;;;;4972452;28;20388;-61
2021/08/08 01:41:10;;;;;;;5.20;1.60;;;15.70;99.90;;;;;;4972886;28;20396;-60
2021/08/08 01:43:38;;;;;;;4.95;1.60;;;15.60;99.90;;;;;;4972790;28;20887;-60
2021/08/08 01:46:08;;;;;;;4.15;1.50;;;15.70;99.90;;;;;;4972928;28;20400;-60
2021/08/08 01:48:37;;;;;;;6.80;1.70;;;15.80;99.90;;;;;;4972308;28;20451;-60
2021/08/08 01:51:02;;;;;;;4.95;1.42;;;15.80;99.90;;;;;;4955631;28;20833;-60
2021/08/08 01:53:28;;;;;;;5.57;1.30;;;15.80;99.90;;;;;;4972012;28;20451;-60
2021/08/08 01:55:54;;;;;;;6.60;1.30;;;15.80;99.90;;;;;;4972369;28;20384;-60
2021/08/08 01:58:20;;;;;;;5.30;1.60;;;15.80;99.90;;;;;;4972776;28;20762;-60
2021/08/08 02:00:50;;;;;;;4.97;1.67;;;15.80;99.90;;;;;;4972432;28;20384;-60
2021/08/08 02:03:16;;;;;;;6.90;1.40;;;15.80;99.90;;;;;;4972491;28;20391;-60
2021/08/08 02:05:42;;;;;;;5.13;2.27;;;15.80;99.90;;;;;;4971912;28;20932;-60
2021/08/08 02:08:07;;;;;;;6.22;1.70;;;15.70;99.90;;;;;;4972555;28;20388;-60
2021/08/08 02:10:33;;;;;;;3.80;1.30;;;15.70;99.90;;;;;;4954666;28;20391;-60
2021/08/08 02:12:59;;;;;;;4.85;1.50;;;15.60;99.90;;;;;;4972284;28;20404;-60
2021/08/08 02:15:24;;;;;;;6.20;1.60;;;15.40;99.90;;;;;;4971877;28;20399;-59
2021/08/08 02:17:50;;;;;;;6.37;1.40;;;15.40;99.90;;;;;;4971988;28;20400;-60
2021/08/08 02:20:17;;;;;;;4.72;1.25;;;15.30;99.90;;;;;;4972229;28;20407;-60
2021/08/08 02:22:45;;;;;;;5.80;1.60;;;15.30;99.90;;;;;;4971616;28;20459;-60
2021/08/08 02:25:12;;;;;;;4.65;1.35;;;15.30;99.90;;;;;;4972094;28;20388;-60
2021/08/08 02:27:38;;;;;;;9.40;2.10;;;15.30;99.90;;;;;;4971569;28;20384;-60
2021/08/08 02:30:07;;;;;;;5.75;1.50;;;15.40;99.90;;;;;;4972055;28;20803;-60
2021/08/08 02:32:32;;;;;;;4.53;1.25;;;15.40;99.90;;;;;;4971188;28;20435;-60
2021/08/08 02:34:58;;;;;;;4.00;1.30;;;15.40;99.90;;;;;;4972259;28;20396;-60
2021/08/08 02:37:24;;;;;;;4.35;1.75;;;15.30;99.90;;;;;;4971947;28;20479;-59
2021/08/08 02:39:49;;;;;;;5.60;1.30;;;15.30;99.90;;;;;;4971621;28;20443;-61
2021/08/08 02:42:15;;;;;;;9.23;1.33;;;15.30;99.90;;;;;;4972176;28;20377;-60
2021/08/08 02:44:40;;;;;;;4.50;1.20;;;15.30;99.90;;;;;;4971152;28;20392;-60
2021/08/08 02:47:07;;;;;;;4.70;1.20;;;15.20;99.90;;;;;;4971720;28;20784;-60
2021/08/08 02:49:33;;;;;;;4.27;1.10;;;15.30;99.90;;;;;;4971076;28;20479;-60
2021/08/08 02:51:58;;;;;;;5.30;1.23;;;15.30;99.90;;;;;;4971730;28;20547;-61
2021/08/08 02:54:24;;;;;;;7.10;1.30;;;15.30;99.90;;;;;;4971511;28;20420;-60
2021/08/08 02:56:50;;;;;;;4.80;1.40;;;15.30;99.90;;;;;;4969650;28;20404;-60
2021/08/08 02:59:15;;;;;;;5.53;1.20;;;15.30;99.90;;;;;;4971142;28;20501;-61
2021/08/08 03:01:41;;;;;;;3.80;1.20;;;15.30;99.90;;;;;;4970683;28;20608;-60
2021/08/08 03:04:06;;;;;;;4.70;1.20;;;15.30;99.90;;;;;;4971577;28;20486;-61
2021/08/08 03:06:32;;;;;;;5.03;1.50;;;15.30;99.90;;;;;;4970686;28;20400;-60
2021/08/08 03:08:58;;;;;;;6.07;1.30;;;15.30;99.90;;;;;;4971383;28;20395;-61
2021/08/08 03:11:24;;;;;;;4.37;1.30;;;15.30;99.90;;;;;;4971593;28;20384;-60
2021/08/08 03:13:49;;;;;;;5.20;1.30;;;15.30;99.90;;;;;;4970849;28;20420;-61
2021/08/08 03:16:15;;;;;;;8.60;1.80;;;15.20;99.90;;;;;;4971624;28;20406;-62
2021/08/08 03:18:41;;;;;;;6.80;1.80;;;15.10;99.90;;;;;;4970901;28;20725;-60
2021/08/08 03:21:07;;;;;;;4.90;1.60;;;15.10;99.90;;;;;;4971485;28;20423;-60
2021/08/08 03:23:33;;;;;;;4.75;1.63;;;15.10;99.90;;;;;;4970413;28;20388;-60
2021/08/08 03:25:59;;;;;;;4.68;1.50;;;15.10;99.90;;;;;;4971220;28;20406;-60
2021/08/08 03:28:25;;;;;;;4.30;1.30;;;15.20;99.90;;;;;;4971349;28;20839;-61
2021/08/08 03:30:51;;;;;;;4.60;1.40;;;13.80;99.90;;;;;;4970691;28;20475;-60
2021/08/08 03:33:16;;;;;;;4.00;1.20;;;15.20;99.90;;;;;;4971278;28;20467;-61
2021/08/08 03:35:42;;;;;;;4.70;2.00;;;15.10;99.90;;;;;;4970609;28;20463;-60
2021/08/08 03:38:08;;;;;;;4.70;1.60;;;15.10;99.90;;;;;;4971042;28;20380;-60
2021/08/08 03:40:35;;;;;;;6.47;1.70;;;15.10;99.90;;;;;;4970415;28;20534;-61
2021/08/08 03:43:01;;;;;;;4.88;1.50;;;15.10;99.90;;;;;;4971200;28;20395;-61
2021/08/08 03:45:27;;;;;;;5.35;1.70;;;15.00;99.90;;;;;;4971042;28;20392;-60
2021/08/08 03:47:52;;;;;;;8.30;1.80;;;15.00;99.90;;;;;;4970045;28;20431;-60
2021/08/08 03:50:18;;;;;;;4.28;1.55;;;15.00;99.90;;;;;;4970929;28;20440;-61
2021/08/08 03:52:44;;;;;;;7.10;1.70;;;14.90;99.90;;;;;;4970288;28;20423;-60
2021/08/08 03:55:10;;;;;;;6.65;1.83;;;14.90;99.90;;;;;;4970959;28;20399;-61
2021/08/08 03:57:35;;;;;;;4.10;1.37;;;15.00;99.90;;;;;;4970308;28;20388;-60
2021/08/08 04:00:01;;;;;;;6.30;1.80;;;15.00;99.90;;;;;;4969873;28;20381;-60
2021/08/08 04:02:27;;;;;;;6.10;1.60;;;14.90;99.90;;;;;;4986317;28;20390;-60
2021/08/08 04:04:53;;;;;;;5.15;1.50;;;15.00;99.90;;;;;;4989252;28;20386;-60
2021/08/08 04:07:18;;;;;;;6.30;1.63;;;15.00;99.90;;;;;;4990243;28;20380;-60
2021/08/08 04:09:44;;;;;;;9.02;1.70;;;14.90;99.90;;;;;;4985038;28;20482;-60
2021/08/08 04:12:10;;;;;;;6.50;1.70;;;14.90;99.90;;;;;;4976606;28;20388;-60
2021/08/08 04:14:36;;;;;;;8.18;1.70;;;14.90;99.90;;;;;;4989564;28;20417;-60
2021/08/08 04:17:03;;;;;;;8.30;2.20;;;14.80;99.90;;;;;;4989885;28;20403;-60
2021/08/08 04:19:28;;;;;;;4.47;1.77;;;14.90;99.90;;;;;;4990426;28;20490;-61
2021/08/08 04:21:54;;;;;;;5.07;1.50;;;14.20;99.90;;;;;;4993175;28;20481;-61
2021/08/08 04:24:20;;;;;;;5.68;2.30;;;15.00;99.90;;;;;;4993488;28;20765;-61
2021/08/08 04:26:45;;;;;;;7.40;2.20;;;15.20;99.90;;;;;;4992993;28;20379;-61
2021/08/08 04:29:11;;;;;;;7.70;1.58;;;15.30;99.90;;;;;;4993780;28;20389;-61
2021/08/08 04:31:36;;;;;;;5.20;1.58;;;15.40;99.90;;;;;;4993140;28;20418;-61
2021/08/08 04:34:02;;;;;;;5.90;1.90;;;15.60;99.90;;;;;;4993606;28;20505;-61
2021/08/08 04:36:28;;;;;;;4.50;1.70;;;15.70;99.90;;;;;;4993864;28;20406;-62
2021/08/08 04:38:53;;;;;;;7.05;1.80;;;15.70;99.90;;;;;;4992934;28;21012;-60
2021/08/08 04:41:19;;;;;;;5.90;1.70;;;15.70;99.90;;;;;;4993725;28;20383;-61
2021/08/08 04:43:44;;;;;;;7.00;2.10;;;15.70;99.90;;;;;;4992779;28;20386;-61
2021/08/08 04:46:10;;;;;;;5.20;1.60;;;15.70;99.90;;;;;;4993231;28;20417;-61
2021/08/08 04:48:36;;;;;;;6.60;1.70;;;15.60;99.90;;;;;;4975105;28;20423;-59
2021/08/08 04:51:02;;;;;;;5.70;1.90;;;15.50;99.90;;;;;;4993317;28;20397;-61
2021/08/08 04:53:27;;;;;;;5.70;1.80;;;15.40;99.90;;;;;;4993355;28;20446;-61
2021/08/08 04:55:54;;;;;;;4.40;1.70;;;15.40;99.90;;;;;;4992378;28;20390;-61
2021/08/08 04:58:20;;;;;;;4.70;1.70;;;15.50;99.90;;;;;;4993257;28;20390;-61
2021/08/08 05:00:45;;;;;;;7.35;2.10;;;15.80;99.90;;;;;;4992336;28;20758;-61
2021/08/08 05:03:11;;;;;;;7.70;2.40;;;16.20;99.90;;;;;;4993268;28;20397;-61
2021/08/08 05:05:37;;;;;;;9.40;2.10;;;16.80;99.90;;;;;;4992529;28;20387;-61
2021/08/08 05:08:02;;;;;;;7.80;2.80;;;17.70;99.90;;;;;;4993285;28;20390;-61
2021/08/08 05:10:28;;;;;;;4.53;1.27;;;18.30;99.90;;;;;;4993025;28;20870;-61
2021/08/08 05:12:55;;;;;;;7.72;1.40;;;18.90;99.90;;;;;;4992366;28;20417;-61
2021/08/08 05:15:22;;;;;;;7.07;1.30;;;19.50;99.90;;;;;;4993002;28;20422;-61
2021/08/08 05:17:47;;;;;;;5.00;1.23;;;19.80;99.90;;;;;;4992303;28;20422;-61
2021/08/08 05:20:14;;;;;;;5.63;1.38;;;20.30;99.90;;;;;;4993039;28;20766;-61
2021/08/08 05:22:40;;;;;;;7.70;1.40;;;20.70;99.90;;;;;;4992014;28;20409;-61
2021/08/08 05:25:06;;;;;;;5.45;1.27;;;20.70;99.90;;;;;;4992857;28;20933;-61
2021/08/08 05:27:34;;;;;;;5.28;1.20;;;21.10;99.90;;;;;;4981167;28;20436;-61
2021/08/08 05:30:00;;;;;;;4.50;1.20;;;21.90;99.90;;;;;;4972786;28;20823;-62
2021/08/08 05:32:26;;;;;;;5.90;1.30;;;22.70;99.90;;;;;;4971897;28;20387;-62
2021/08/08 05:34:51;;;;;;;5.85;1.05;;;23.50;99.90;;;;;;4972605;28;20432;-61
2021/08/08 05:37:17;;;;;;;6.00;1.40;;;23.70;99.90;;;;;;4973310;28;20472;-62
2021/08/08 05:39:43;;;;;;;5.35;1.30;;;24.00;99.90;;;;;;4972185;28;20384;-61
2021/08/08 05:42:08;;;;;;;4.90;1.13;;;23.90;99.90;;;;;;4973336;28;20856;-61
2021/08/08 05:44:37;;;;;;;5.60;1.20;;;23.70;99.90;;;;;;4973269;28;20724;-61
2021/08/08 05:47:05;;;;;;;7.88;1.23;;;24.00;99.90;;;;;;4972512;28;20813;-61
2021/08/08 05:49:33;;;;;;;4.97;1.20;;;25.00;99.90;;;;;;4974318;28;20457;-61
2021/08/08 05:51:59;;;;;;;5.75;1.20;;;25.10;99.90;;;;;;4976005;28;20482;-62
2021/08/08 05:54:25;;;;;;;8.40;1.00;;;25.10;99.90;;;;;;4989755;28;20414;-62
2021/08/08 05:56:50;;;;;;;5.20;1.08;;;25.40;99.90;;;;;;4974045;28;20755;-62
2021/08/08 05:59:16;;;;;;;5.55;1.30;;;25.20;99.90;;;;;;4981044;28;20933;-61
2021/08/08 06:01:42;;;;;;;5.20;2.27;;;25.20;99.90;;;;;;4990924;28;20391;-61
2021/08/08 06:04:07;;;;;;;4.60;1.10;;;26.10;99.90;;;;;;4974192;28;20758;-62
2021/08/08 06:06:33;;;;;;;4.30;0.90;;;26.10;99.90;;;;;;4991597;28;20461;-62
2021/08/08 06:08:58;;;;;;;6.40;1.23;;;25.60;99.90;;;;;;4975022;28;20411;-62
2021/08/08 06:11:24;;;;;;;4.77;1.10;;;25.50;99.90;;;;;;4972003;28;20389;-61
2021/08/08 06:13:50;;;;;;;4.20;1.30;;;24.60;99.90;;;;;;4971706;28;20872;-61
2021/08/08 06:16:15;;;;;;;6.23;1.23;;;23.70;99.90;;;;;;4971767;28;20403;-61
2021/08/08 06:18:41;;;;;;;5.10;1.20;;;23.40;99.90;;;;;;4971354;28;20396;-60
2021/08/08 06:21:07;;;;;;;7.80;1.40;;;22.70;99.90;;;;;;4971833;28;20427;-62
2021/08/08 06:23:32;;;;;;;6.90;1.20;;;23.30;99.90;;;;;;4971986;28;20420;-62
2021/08/08 06:25:58;;;;;;;5.40;1.10;;;23.00;99.90;;;;;;4986513;28;20479;-62
2021/08/08 06:28:23;;;;;;;5.30;1.10;;;23.80;99.90;;;;;;4991556;28;20433;-62
2021/08/08 06:30:49;;;;;;;4.03;1.10;;;23.50;99.90;;;;;;4984276;28;20388;-62
2021/08/08 06:33:16;;;;;;;5.00;1.20;;;24.00;99.90;;;;;;4971797;28;20892;-62
2021/08/08 06:35:42;;;;;;;4.80;0.90;;;24.60;99.90;;;;;;4975942;28;20427;-61
2021/08/08 06:38:08;;;;;;;6.30;1.20;;;24.60;99.90;;;;;;4964866;28;20411;-61
2021/08/08 06:40:34;;;;;;;4.73;1.10;;;24.30;99.90;;;;;;4979977;28;20448;-62
2021/08/08 06:43:02;;;;;;;5.70;1.13;;;24.00;99.90;;;;;;4979979;28;20471;-62
2021/08/08 06:45:27;;;;;;;5.30;1.33;;;24.70;99.90;;;;;;4982198;28;20441;-62
2021/08/08 06:47:53;;;;;;;6.43;1.20;;;24.90;99.90;;;;;;4978753;28;20768;-62
2021/08/08 06:50:19;;;;;;;4.55;1.10;;;24.50;99.90;;;;;;4965031;28;20499;-62
2021/08/08 06:52:44;;;;;;;5.03;1.37;;;22.60;99.90;;;;;;4963952;28;20475;-62
2021/08/08 06:55:10;;;;;;;5.40;1.20;;;22.80;99.90;;;;;;4979949;28;20392;-62
2021/08/08 06:57:36;;;;;;;5.47;1.13;;;22.80;99.90;;;;;;4980972;28;20390;-62
2021/08/08 07:00:03;;;;;;;4.25;1.20;;;23.20;99.90;;;;;;4979572;28;21078;-62
2021/08/08 07:02:28;;;;;;;5.25;1.15;;;22.70;99.90;;;;;;4979031;28;20392;-61
2021/08/08 07:04:55;;;;;;;4.40;1.27;;;22.90;99.90;;;;;;4980898;28;20391;-62
2021/08/08 07:07:20;;;;;;;6.20;1.75;;;23.30;99.90;;;;;;4980412;28;20439;-62
2021/08/08 07:09:46;;;;;;;5.50;1.30;;;23.90;99.90;;;;;;4979198;28;20394;-62
2021/08/08 07:12:11;;;;;;;5.18;1.60;;;24.10;99.90;;;;;;4981095;28;20885;-61
2021/08/08 07:14:37;;;;;;;4.93;1.30;;;23.80;99.90;;;;;;4976597;28;20981;-62
2021/08/08 07:17:03;;;;;;;5.88;1.50;;;24.10;99.90;;;;;;4976029;28;20411;-63
2021/08/08 07:19:29;;;;;;;5.20;1.30;;;24.00;99.90;;;;;;4979334;28;20442;-63
2021/08/08 07:21:55;;;;;;;5.10;1.70;;;24.90;99.90;;;;;;4981143;28;20383;-63
2021/08/08 07:24:21;;;;;;;5.93;1.50;;;25.50;99.90;;;;;;4979923;28;20400;-63
2021/08/08 07:26:47;;;;;;;4.60;1.23;;;25.90;99.90;;;;;;4978532;28;20386;-63
2021/08/08 07:29:13;;;;;;;5.18;1.40;;;26.50;99.90;;;;;;4980048;28;20408;-61
2021/08/08 07:31:38;;;;;;;5.03;1.60;;;27.00;99.90;;;;;;4977977;28;20404;-61
2021/08/08 07:34:04;;;;;;;6.32;1.60;;;26.80;99.90;;;;;;4976674;28;20414;-61
2021/08/08 07:36:30;;;;;;;7.03;1.33;;;27.50;99.30;;;;;;4980264;28;20455;-62
2021/08/08 07:38:56;;;;;;;6.70;2.00;;;27.90;97.60;;;;;;4979911;28;20746;-62
2021/08/08 07:41:21;;;;;;;9.20;7.30;;;27.70;96.80;;;;;;4980927;28;20919;-61
2021/08/08 07:43:47;;;;;;;6.28;1.30;;;27.30;96.50;;;;;;4976986;28;20384;-61
2021/08/08 07:46:13;;;;;;;6.85;1.70;;;27.10;97.50;;;;;;4981773;28;20478;-61
2021/08/08 07:48:39;;;;;;;5.80;1.47;;;27.00;97.20;;;;;;4960432;28;20909;-61
2021/08/08 07:51:04;;;;;;;5.50;1.20;;;27.50;97.30;;;;;;4959955;28;20935;-61
2021/08/08 07:53:30;;;;;;;5.90;1.70;;;26.70;96.50;;;;;;4959868;28;20420;-64
2021/08/08 07:55:56;;;;;;;5.47;1.50;;;25.30;98.40;;;;;;4964255;28;20392;-63
2021/08/08 07:58:24;;;;;;;6.50;1.77;;;24.10;99.70;;;;;;4963038;28;20397;-63
2021/08/08 08:00:50;;;;;;;5.22;1.52;;;23.70;99.90;;;;;;4964400;28;20385;-63
2021/08/08 08:03:16;;;;;;;5.20;1.50;;;23.80;99.90;;;;;;4963560;28;20408;-63
2021/08/08 08:05:42;;;;;;;5.43;1.40;;;24.60;99.90;;;;;;4969958;28;20400;-63
2021/08/08 08:08:09;;;;;;;6.28;1.60;;;24.40;99.90;;;;;;4959020;28;20392;-64
2021/08/08 08:10:35;;;;;;;6.45;1.52;;;24.90;99.90;;;;;;4970792;28;20521;-64
2021/08/08 08:13:02;;;;;;;4.60;1.30;;;26.00;98.80;;;;;;4954748;28;20441;-62
2021/08/08 08:15:28;;;;;;;5.75;1.55;;;26.80;96.90;;;;;;4964248;28;20405;-62
2021/08/08 08:17:54;;;;;;;5.90;1.67;;;27.30;95.70;;;;;;4962592;28;20402;-62
2021/08/08 08:20:21;;;;;;;4.60;1.30;;;26.80;95.10;;;;;;4964340;28;20867;-63
2021/08/08 08:22:46;;;;;;;5.50;1.50;;;26.30;97.10;;;;;;4964375;28;20401;-59
2021/08/08 08:25:12;;;;;;;6.63;1.43;;;25.50;98.20;;;;;;4966202;28;20421;-68
2021/08/08 08:27:39;;;;;;;5.60;1.52;;;25.30;98.60;;;;;;4956145;28;20828;-68
2021/08/08 08:30:05;;;;;;;4.72;1.50;;;25.20;99.20;;;;;;4960959;28;20516;-64
2021/08/08 08:32:31;;;;;;;6.72;1.80;;;24.80;99.10;;;;;;4969173;28;20567;-68
2021/08/08 08:35:02;;;;;;;6.30;1.70;;;25.00;98.70;;;;;;4965500;28;20978;-66
2021/08/08 08:37:31;;;;;;;5.15;1.25;;;25.90;98.50;;;;;;4964057;28;20413;-65
2021/08/08 08:39:58;;;;;;;6.00;1.40;;;26.60;96.30;;;;;;4961989;28;20400;-65
2021/08/08 08:42:26;;;;;;;6.80;1.80;;;26.20;96.50;;;;;;4967363;28;20404;-65
2021/08/08 08:44:53;;;;;;;5.20;1.70;;;25.90;96.10;;;;;;4960348;28;21095;-67
2021/08/08 08:47:21;;;;;;;6.80;1.50;;;25.40;98.60;;;;;;4972116;28;20433;-66
2021/08/08 08:49:50;;;;;;;6.22;1.70;;;25.60;98.10;;;;;;4990481;28;20504;-62
2021/08/08 08:52:24;;;;;;;8.80;2.17;;;25.10;98.50;;;;;;4989038;28;20415;-67
2021/08/08 08:54:50;;;;;;;6.10;1.80;;;24.30;99.40;;;;;;4983008;28;20418;-64
2021/08/08 08:57:16;;;;;;;5.60;1.80;;;24.00;99.90;;;;;;4984312;28;20410;-66
2021/08/08 08:59:43;;;;;;;6.50;1.90;;;23.60;99.90;;;;;;4988239;28;20406;-65
2021/08/08 09:02:10;;;;;;;5.55;1.90;;;23.20;99.90;;;;;;4986266;28;20652;-66
2021/08/08 09:04:36;;;;;;;6.53;1.92;;;22.50;99.90;;;;;;4978992;28;20505;-66
2021/08/08 09:07:03;;;;;;;6.07;2.30;;;21.90;99.90;;;;;;4980147;28;20466;-63
2021/08/08 09:09:31;;;;;;;8.50;2.22;;;21.70;99.90;;;;;;4980628;28;20420;-64
2021/08/08 09:11:56;;;;;;;6.68;2.45;;;22.10;99.90;;;;;;4983271;28;20410;-64
2021/08/08 09:14:23;;;;;;;9.00;2.70;;;22.10;99.90;;;;;;4984112;28;20427;-66
2021/08/08 09:16:54;;;;;;;6.43;2.23;;;21.80;99.90;;;;;;4986529;28;20409;-60
2021/08/08 09:19:26;;;;;;;8.07;2.50;;;21.80;99.90;;;;;;4984252;28;20422;-64
2021/08/08 09:21:52;;;;;;;6.60;2.22;;;21.80;99.90;;;;;;4986480;28;20474;-61
2021/08/08 09:24:32;;;;;;;5.03;1.97;;;21.80;99.90;;;;;;4982825;28;20396;-66
2021/08/08 09:27:07;;;;;;;5.30;1.90;;;21.90;99.90;;;;;;4987591;28;20452;-66
2021/08/08 09:29:35;;;;;;;8.13;2.53;;;21.60;99.90;;;;;;4984756;28;20489;-66
2021/08/08 09:32:02;;;;;;;5.47;2.00;;;21.90;99.90;;;;;;4981535;28;20416;-65
2021/08/08 09:34:36;;;;;;;5.32;2.13;;;23.10;99.90;;;;;;4984354;28;20435;-67
2021/08/08 09:37:13;;;;;;;6.45;2.15;;;25.00;99.90;;;;;;4983197;28;20423;-67
2021/08/08 09:39:42;;;;;;;5.80;2.33;;;26.50;99.40;;;;;;4984851;28;20509;-63
2021/08/08 09:42:11;;;;;;;5.93;2.65;;;27.30;95.80;;;;;;4983291;28;20410;-64
2021/08/08 09:44:39;;;;;;;7.10;2.40;;;26.80;95.40;;;;;;4986237;28;20414;-66
2021/08/08 09:47:05;;;;;;;5.03;2.20;;;26.80;94.90;;;;;;4979613;28;20767;-65
2021/08/08 09:49:31;;;;;;;7.90;1.88;;;27.00;94.20;;;;;;4969975;28;20835;-65
2021/08/08 09:51:56;;;;;;;7.95;3.00;;;27.20;93.30;;;;;;4979704;28;20431;-68
2021/08/08 09:54:22;;;;;;;8.33;2.20;;;25.80;94.60;;;;;;4982277;28;20439;-67
2021/08/08 09:56:58;;;;;;;5.93;2.10;;;24.30;95.50;;;;;;4982758;28;20473;-60
2021/08/08 09:59:24;;;;;;;6.35;2.42;;;23.30;96.20;;;;;;4984426;28;20400;-64
2021/08/08 10:01:50;;;;;;;7.10;2.30;;;22.80;97.90;;;;;;4986584;28;20402;-60
2021/08/08 10:04:16;;;;;;;5.60;2.30;;;22.80;99.50;;;;;;4980583;28;20410;-65
2021/08/08 10:06:42;;;;;;;6.88;2.20;;;22.40;98.00;;;;;;4986718;28;20799;-64
2021/08/08 10:09:11;;;;;;;5.70;2.30;;;22.40;98.20;;;;;;4987512;28;20420;-65
2021/08/08 10:11:37;;;;;;;5.95;2.45;;;22.80;98.50;;;;;;4979713;28;20936;-65
2021/08/08 10:14:04;;;;;;;7.65;2.20;;;23.40;99.50;;;;;;4980523;28;20439;-64
2021/08/08 10:16:32;;;;;;;5.35;2.20;;;24.10;95.50;;;;;;4986519;28;20427;-65
2021/08/08 10:19:01;;;;;;;5.20;2.10;;;25.20;93.60;;;;;;4977708;28;20420;-66
2021/08/08 10:21:29;;;;;;;5.20;1.92;;;26.30;93.20;;;;;;4976518;28;20404;-65
2021/08/08 10:24:02;;;;;;;6.00;2.30;;;27.30;91.30;;;;;;4975639;28;20412;-65
2021/08/08 10:26:29;;;;;;;6.05;2.08;;;26.80;92.20;;;;;;4985192;28;20453;-67
2021/08/08 10:28:57;;;;;;;7.15;2.67;;;26.00;93.30;;;;;;4982997;28;20395;-67
2021/08/08 10:31:26;;;;;;;4.80;2.10;;;26.20;94.00;;;;;;4985469;28;20469;-65
2021/08/08 10:33:56;;;;;;;5.60;2.17;;;27.10;93.90;;;;;;4979002;28;20524;-61
2021/08/08 10:36:28;;;;;;;5.97;2.20;;;27.80;92.10;;;;;;4982525;28;20385;-65
2021/08/08 10:39:07;;;;;;;5.70;2.20;;;28.10;90.30;;;;;;4979304;28;20410;-63
2021/08/08 10:41:34;;;;;;;5.43;2.40;;;28.20;89.10;;;;;;4979924;28;20397;-65
2021/08/08 10:44:12;;;;;;;5.75;2.42;;;27.50;86.50;;;;;;4955008;28;20407;-65
2021/08/08 10:46:46;;;;;;;6.10;2.50;;;26.90;89.60;;;;;;4977237;28;20463;-67
2021/08/08 10:49:12;;;;;;;5.13;2.20;;;25.90;90.60;;;;;;4977744;28;20469;-68
2021/08/08 10:51:37;;;;;;;6.57;2.20;;;26.10;90.60;;;;;;4981870;28;20414;-68
2021/08/08 10:54:08;;;;;;;5.80;2.20;;;26.30;90.00;;;;;;4981359;28;20414;-68
2021/08/08 10:56:42;;;;;;;7.05;2.42;;;26.00;91.00;;;;;;4987119;28;20500;-67
2021/08/08 10:59:16;;;;;;;8.55;3.05;;;25.70;89.60;;;;;;4979808;28;20426;-67
2021/08/08 11:01:41;;;;;;;6.30;2.40;;;25.40;90.50;;;;;;4980985;28;20399;-63
2021/08/08 11:04:07;;;;;;;5.68;2.50;;;25.20;91.40;;;;;;4985560;28;20524;-64
2021/08/08 11:06:34;;;;;;;5.82;2.33;;;24.90;92.30;;;;;;4984216;28;20392;-66
2021/08/08 11:09:02;;;;;;;6.07;2.22;;;25.00;93.00;;;;;;4969120;28;20406;-66
2021/08/08 11:11:30;;;;;;;6.25;2.30;;;25.00;92.00;;;;;;4983952;28;20962;-65
2021/08/08 11:14:14;;;;;;;6.73;2.40;;;25.10;91.40;;;;;;4970181;28;20880;-66
2021/08/08 11:16:42;;;;;;;5.10;1.90;;;25.10;90.30;;;;;;4960516;28;20946;-65
2021/08/08 11:19:08;;;;;;;5.80;2.40;;;25.00;90.40;;;;;;4979195;28;20418;-64
2021/08/08 11:21:35;;;;;;;5.60;1.90;;;25.00;90.20;;;;;;4978001;28;20396;-66
2021/08/08 11:24:03;;;;;;;6.60;2.42;;;25.00;91.50;;;;;;4976056;28;20494;-66
2021/08/08 11:26:29;;;;;;;7.05;2.40;;;25.20;90.90;;;;;;4980764;28;20739;-66
2021/08/08 11:29:01;;;;;;;7.55;2.35;;;24.80;91.60;;;;;;4974464;28;20481;-62
2021/08/08 11:31:37;;;;;;;10.88;2.90;;;24.20;91.90;;;;;;4972463;28;20802;-62
2021/08/08 11:34:08;;;;;;;6.55;2.45;;;23.00;95.50;;;;;;4972782;28;20420;-64
2021/08/08 11:36:36;;;;;;;6.07;2.15;;;22.60;95.10;;;;;;4975940;28;20411;-66
2021/08/08 11:39:05;;;;;;;8.10;2.00;;;22.10;95.50;;;;;;4975713;28;20419;-66
2021/08/08 11:41:31;;;;;;;6.00;1.50;;;21.60;95.50;;;;;;4978005;28;20417;-66
2021/08/08 11:44:05;;;;;;;5.10;1.50;;;21.20;96.20;;;;;;4973164;28;20982;-64
2021/08/08 11:46:31;;;;;;;5.55;1.65;;;20.90;96.90;;;;;;4975622;28;20408;-64
2021/08/08 11:48:56;;;;;;;4.80;1.20;;;21.10;99.90;;;;;;4975032;28;20914;-64
2021/08/08 11:51:22;;;;;;;5.30;1.60;;;21.40;99.10;;;;;;4981190;28;20414;-62
2021/08/08 11:53:56;;;;;;;6.43;1.55;;;21.40;98.40;;;;;;4972549;28;20499;-62
2021/08/08 11:56:28;;;;;;;5.05;1.40;;;21.30;98.30;;;;;;4986162;28;20407;-62
2021/08/08 11:58:55;;;;;;;5.05;1.90;;;21.10;98.70;;;;;;4989107;28;21087;-60
2021/08/08 12:01:25;;;;;;;5.15;1.60;;;20.70;99.90;;;;;;4980062;28;20906;-62
2021/08/08 12:03:52;;;;;;;6.00;1.50;;;20.10;99.90;;;;;;4970844;28;20392;-62
2021/08/08 12:06:22;;;;;;;5.40;1.60;;;19.60;99.90;;;;;;4969743;28;20407;-62
2021/08/08 12:08:52;;;;;;;4.85;1.50;;;19.40;99.90;;;;;;4970378;28;20843;-62
2021/08/08 12:11:22;;;;;;;8.93;1.50;;;19.10;99.90;;;;;;4969524;28;20392;-62
2021/08/08 12:14:01;;;;;;;5.07;1.30;;;18.90;99.90;;;;;;4969943;28;20408;-62
2021/08/08 12:16:37;;;;;;;4.63;1.35;;;19.00;99.90;;;;;;4988904;28;20407;-62
2021/08/08 12:19:05;;;;;;;5.28;1.10;;;19.10;99.90;;;;;;4974411;28;20404;-62
2021/08/08 12:21:38;;;;;;;4.25;1.10;;;19.30;99.90;;;;;;4970539;28;20427;-62
2021/08/08 12:24:05;;;;;;;5.95;1.50;;;19.30;99.90;;;;;;4969327;28;20400;-62
2021/08/08 12:26:31;;;;;;;5.25;1.60;;;19.50;99.90;;;;;;4970434;28;20403;-62
2021/08/08 12:29:05;;;;;;;4.70;1.60;;;19.70;99.90;;;;;;4969839;28;20479;-60
2021/08/08 12:31:42;;;;;;;6.47;2.15;;;20.10;99.90;;;;;;4953090;28;20488;-62
2021/08/08 12:34:09;;;;;;;4.75;1.48;;;20.50;99.90;;;;;;4952297;28;20949;-62
2021/08/08 12:36:40;;;;;;;6.20;1.70;;;20.80;99.60;;;;;;4970876;28;20400;-62
2021/08/08 12:39:08;;;;;;;4.57;1.30;;;21.00;98.20;;;;;;4968833;28;20381;-62
2021/08/08 12:41:40;;;;;;;6.13;1.50;;;21.10;97.30;;;;;;4972859;28;20474;-67
2021/08/08 12:44:08;;;;;;;4.80;1.30;;;21.20;97.10;;;;;;4974146;28;20396;-67
2021/08/08 12:46:38;;;;;;;4.40;1.30;;;21.50;97.40;;;;;;4986545;28;20414;-64